TimePDT,TemperatureF,Dew PointF,Humidity,Sea Level PressureIn,VisibilityMPH,Wind Direction,Wind SpeedMPH,Gust SpeedMPH,PrecipitationIn,Events,Conditions,WindDirDegrees,DateUTC
12:53 AM,68.0,59.0,73,30.01,10.0,SW,4.6,-,N/A,,Clear,230,2013-06-27 07:53:00
1:53 AM,66.0,57.9,75,30.01,10.0,WSW,5.8,-,N/A,,Clear,240,2013-06-27 08:53:00
2:53 AM,64.9,59.0,81,30.01,10.0,SW,6.9,-,N/A,,Clear,220,2013-06-27 09:53:00
3:53 AM,64.0,57.9,80,30.01,10.0,SW,5.8,-,N/A,,Clear,230,2013-06-27 10:53:00
4:53 AM,63.0,57.9,84,30.01,10.0,SW,6.9,-,N/A,,Clear,230,2013-06-27 11:53:00
5:53 AM,61.0,57.0,87,30.02,10.0,Calm,Calm,-,N/A,,Clear,0,2013-06-27 12:53:00
6:53 AM,64.9,59.0,81,30.03,10.0,Calm,Calm,-,N/A,,Clear,0,2013-06-27 13:53:00
7:53 AM,71.1,59.0,66,30.05,10.0,Calm,Calm,-,N/A,,Clear,0,2013-06-27 14:53:00
8:53 AM,73.9,60.1,62,30.06,10.0,Calm,Calm,-,N/A,,Clear,0,2013-06-27 15:53:00
9:53 AM,80.1,59.0,48,30.06,10.0,Calm,Calm,-,N/A,,Clear,0,2013-06-27 16:53:00
10:53 AM,84.0,61.0,46,30.06,10.0,SSE,6.9,-,N/A,,Clear,150,2013-06-27 17:53:00
11:53 AM,87.1,61.0,41,30.06,10.0,Variable,3.5,-,N/A,,Clear,0,2013-06-27 18:53:00
12:53 PM,89.1,59.0,36,30.04,10.0,Variable,5.8,-,N/A,,Clear,0,2013-06-27 19:53:00
1:53 PM,93.0,60.1,33,30.04,10.0,SE,4.6,-,N/A,,Clear,140,2013-06-27 20:53:00
2:53 PM,93.9,57.0,29,30.02,10.0,East,6.9,-,N/A,,Clear,100,2013-06-27 21:53:00
3:53 PM,96.1,59.0,29,30.01,10.0,SE,6.9,-,N/A,,Clear,140,2013-06-27 22:53:00
4:53 PM,96.1,60.1,30,29.99,10.0,ESE,10.4,-,N/A,,Clear,120,2013-06-27 23:53:00
5:53 PM,96.1,59.0,29,29.98,10.0,SE,4.6,-,N/A,,Clear,130,2013-06-28 00:53:00
6:53 PM,93.9,57.9,30,29.97,10.0,SSE,4.6,-,N/A,,Clear,160,2013-06-28 01:53:00
7:53 PM,90.0,57.9,34,29.97,10.0,South,4.6,-,N/A,,Clear,180,2013-06-28 02:53:00
8:53 PM,84.9,57.9,40,29.98,10.0,SW,4.6,-,N/A,,Clear,230,2013-06-28 03:53:00
9:53 PM,82.9,60.1,46,29.99,10.0,Calm,Calm,-,N/A,,Clear,0,2013-06-28 04:53:00
10:53 PM,80.1,60.1,50,30.00,10.0,Calm,Calm,-,N/A,,Clear,0,2013-06-28 05:53:00
11:53 PM,75.9,59.0,56,29.99,10.0,Calm,Calm,-,N/A,,Clear,0,2013-06-28 06:53:00